sensor_id;sensor_type;location;lat;lon;timestamp;P1;durP1;ratioP1;P2;durP2;ratioP2
65182;SDS011;51771;51.068;-1.780;2023-05-19T00:00:01;2.88;;;1.10;;
65182;SDS011;51771;51.068;-1.780;2023-05-19T00:02:26;3.75;;;1.23;;
65182;SDS011;51771;51.068;-1.780;2023-05-19T00:04:51;5.90;;;1.40;;
65182;SDS011;51771;51.068;-1.780;2023-05-19T00:07:17;4.88;;;1.15;;
65182;SDS011;51771;51.068;-1.780;2023-05-19T00:09:44;2.65;;;1.00;;
65182;SDS011;51771;51.068;-1.780;2023-05-19T00:12:09;2.72;;;0.85;;
65182;SDS011;51771;51.068;-1.780;2023-05-19T00:14:35;4.45;;;1.55;;
65182;SDS011;51771;51.068;-1.780;2023-05-19T00:17:00;4.50;;;1.38;;
65182;SDS011;51771;51.068;-1.780;2023-05-19T00:19:26;2.25;;;0.90;;
65182;SDS011;51771;51.068;-1.780;2023-05-19T00:21:56;5.72;;;1.25;;
65182;SDS011;51771;51.068;-1.780;2023-05-19T00:24:21;4.07;;;1.50;;
65182;SDS011;51771;51.068;-1.780;2023-05-19T00:26:46;5.70;;;1.52;;
65182;SDS011;51771;51.068;-1.780;2023-05-19T00:29:11;3.70;;;1.63;;
65182;SDS011;51771;51.068;-1.780;2023-05-19T00:31:37;5.20;;;1.48;;
65182;SDS011;51771;51.068;-1.780;2023-05-19T00:34:02;4.20;;;1.07;;
65182;SDS011;51771;51.068;-1.780;2023-05-19T00:36:27;5.90;;;1.20;;
65182;SDS011;51771;51.068;-1.780;2023-05-19T00:38:52;3.63;;;0.98;;
65182;SDS011;51771;51.068;-1.780;2023-05-19T00:41:18;3.35;;;1.25;;
65182;SDS011;51771;51.068;-1.780;2023-05-19T00:43:43;2.63;;;0.93;;
65182;SDS011;51771;51.068;-1.780;2023-05-19T00:46:08;2.25;;;0.85;;
65182;SDS011;51771;51.068;-1.780;2023-05-19T00:48:34;3.63;;;1.20;;
65182;SDS011;51771;51.068;-1.780;2023-05-19T00:51:00;2.78;;;1.23;;
65182;SDS011;51771;51.068;-1.780;2023-05-19T00:55:53;3.20;;;1.27;;
65182;SDS011;51771;51.068;-1.780;2023-05-19T00:58:18;2.97;;;1.40;;
65182;SDS011;51771;51.068;-1.780;2023-05-19T01:00:44;2.83;;;1.23;;
65182;SDS011;51771;51.068;-1.780;2023-05-19T01:03:09;9.02;;;1.77;;
65182;SDS011;51771;51.068;-1.780;2023-05-19T01:05:41;2.65;;;0.93;;
65182;SDS011;51771;51.068;-1.780;2023-05-19T01:08:08;4.20;;;1.48;;
65182;SDS011;51771;51.068;-1.780;2023-05-19T01:10:34;4.82;;;1.42;;
65182;SDS011;51771;51.068;-1.780;2023-05-19T01:12:59;4.30;;;1.40;;
65182;SDS011;51771;51.068;-1.780;2023-05-19T01:15:25;2.92;;;1.10;;
65182;SDS011;51771;51.068;-1.780;2023-05-19T01:18:01;5.22;;;1.15;;
65182;SDS011;51771;51.068;-1.780;2023-05-19T01:20:33;3.58;;;1.05;;
65182;SDS011;51771;51.068;-1.780;2023-05-19T01:28:19;4.25;;;1.35;;
65182;SDS011;51771;51.068;-1.780;2023-05-19T01:30:52;3.05;;;1.02;;
65182;SDS011;51771;51.068;-1.780;2023-05-19T01:33:18;3.95;;;1.30;;
65182;SDS011;51771;51.068;-1.780;2023-05-19T01:35:44;6.28;;;1.73;;
65182;SDS011;51771;51.068;-1.780;2023-05-19T01:38:11;5.72;;;1.42;;
65182;SDS011;51771;51.068;-1.780;2023-05-19T01:40:37;3.83;;;1.02;;
65182;SDS011;51771;51.068;-1.780;2023-05-19T01:43:03;3.25;;;1.10;;
65182;SDS011;51771;51.068;-1.780;2023-05-19T01:45:29;4.45;;;1.00;;
65182;SDS011;51771;51.068;-1.780;2023-05-19T01:47:55;3.13;;;1.40;;
65182;SDS011;51771;51.068;-1.780;2023-05-19T01:50:21;2.97;;;1.00;;
65182;SDS011;51771;51.068;-1.780;2023-05-19T01:52:46;4.57;;;1.40;;
65182;SDS011;51771;51.068;-1.780;2023-05-19T01:55:12;4.60;;;1.52;;
65182;SDS011;51771;51.068;-1.780;2023-05-19T02:00:18;2.90;;;1.00;;
65182;SDS011;51771;51.068;-1.780;2023-05-19T02:10:32;6.33;;;1.57;;
65182;SDS011;51771;51.068;-1.780;2023-05-19T02:13:00;4.32;;;1.50;;
65182;SDS011;51771;51.068;-1.780;2023-05-19T02:15:27;3.45;;;1.23;;
65182;SDS011;51771;51.068;-1.780;2023-05-19T02:17:54;3.63;;;1.27;;
65182;SDS011;51771;51.068;-1.780;2023-05-19T02:20:19;2.45;;;0.98;;
65182;SDS011;51771;51.068;-1.780;2023-05-19T02:22:48;3.58;;;1.25;;
65182;SDS011;51771;51.068;-1.780;2023-05-19T02:25:13;3.45;;;1.10;;
65182;SDS011;51771;51.068;-1.780;2023-05-19T02:27:38;3.88;;;1.30;;
65182;SDS011;51771;51.068;-1.780;2023-05-19T02:30:04;4.43;;;1.20;;
65182;SDS011;51771;51.068;-1.780;2023-05-19T02:32:30;3.70;;;1.33;;
65182;SDS011;51771;51.068;-1.780;2023-05-19T02:34:55;6.03;;;1.35;;
65182;SDS011;51771;51.068;-1.780;2023-05-19T02:37:20;5.83;;;1.43;;
65182;SDS011;51771;51.068;-1.780;2023-05-19T02:39:47;2.95;;;1.15;;
65182;SDS011;51771;51.068;-1.780;2023-05-19T02:42:13;4.57;;;1.52;;
65182;SDS011;51771;51.068;-1.780;2023-05-19T02:44:41;11.07;;;1.70;;
65182;SDS011;51771;51.068;-1.780;2023-05-19T02:47:06;3.57;;;1.10;;
65182;SDS011;51771;51.068;-1.780;2023-05-19T02:49:31;4.27;;;1.20;;
65182;SDS011;51771;51.068;-1.780;2023-05-19T02:52:00;4.30;;;1.00;;
65182;SDS011;51771;51.068;-1.780;2023-05-19T02:54:25;4.07;;;1.10;;
65182;SDS011;51771;51.068;-1.780;2023-05-19T02:56:50;2.67;;;1.00;;
65182;SDS011;51771;51.068;-1.780;2023-05-19T02:59:15;4.25;;;1.80;;
65182;SDS011;51771;51.068;-1.780;2023-05-19T03:01:40;2.57;;;1.13;;
65182;SDS011;51771;51.068;-1.780;2023-05-19T03:04:06;3.93;;;1.23;;
65182;SDS011;51771;51.068;-1.780;2023-05-19T03:06:31;4.32;;;1.20;;
65182;SDS011;51771;51.068;-1.780;2023-05-19T03:08:56;5.10;;;1.08;;
65182;SDS011;51771;51.068;-1.780;2023-05-19T03:11:22;5.05;;;1.30;;
65182;SDS011;51771;51.068;-1.780;2023-05-19T03:13:47;4.22;;;1.73;;
65182;SDS011;51771;51.068;-1.780;2023-05-19T03:16:12;2.47;;;1.10;;
65182;SDS011;51771;51.068;-1.780;2023-05-19T03:18:39;3.30;;;1.20;;
65182;SDS011;51771;51.068;-1.780;2023-05-19T03:21:05;2.72;;;1.00;;
65182;SDS011;51771;51.068;-1.780;2023-05-19T03:23:30;3.30;;;1.30;;
65182;SDS011;51771;51.068;-1.780;2023-05-19T03:25:55;2.40;;;1.00;;
65182;SDS011;51771;51.068;-1.780;2023-05-19T03:28:21;2.95;;;1.13;;
65182;SDS011;51771;51.068;-1.780;2023-05-19T03:30:51;2.28;;;0.95;;
65182;SDS011;51771;51.068;-1.780;2023-05-19T03:33:16;3.47;;;0.98;;
65182;SDS011;51771;51.068;-1.780;2023-05-19T03:35:41;2.45;;;1.08;;
65182;SDS011;51771;51.068;-1.780;2023-05-19T03:38:08;2.33;;;0.95;;
65182;SDS011;51771;51.068;-1.780;2023-05-19T03:40:33;3.22;;;1.30;;
65182;SDS011;51771;51.068;-1.780;2023-05-19T03:42:58;4.32;;;1.77;;
65182;SDS011;51771;51.068;-1.780;2023-05-19T03:45:27;2.40;;;1.20;;
65182;SDS011;51771;51.068;-1.780;2023-05-19T03:50:18;3.37;;;1.33;;
65182;SDS011;51771;51.068;-1.780;2023-05-19T03:52:43;2.83;;;1.10;;
65182;SDS011;51771;51.068;-1.780;2023-05-19T03:55:10;2.05;;;1.10;;
65182;SDS011;51771;51.068;-1.780;2023-05-19T03:57:35;2.00;;;0.82;;
65182;SDS011;51771;51.068;-1.780;2023-05-19T04:00:02;5.80;;;1.25;;
65182;SDS011;51771;51.068;-1.780;2023-05-19T04:02:27;3.65;;;1.45;;
65182;SDS011;51771;51.068;-1.780;2023-05-19T04:04:53;2.33;;;1.17;;
65182;SDS011;51771;51.068;-1.780;2023-05-19T04:07:18;2.20;;;1.13;;
65182;SDS011;51771;51.068;-1.780;2023-05-19T04:09:43;5.17;;;1.60;;
65182;SDS011;51771;51.068;-1.780;2023-05-19T04:12:09;2.42;;;0.88;;
65182;SDS011;51771;51.068;-1.780;2023-05-19T04:14:34;2.30;;;0.90;;
65182;SDS011;51771;51.068;-1.780;2023-05-19T04:16:59;4.38;;;1.35;;
65182;SDS011;51771;51.068;-1.780;2023-05-19T04:19:24;4.05;;;1.10;;
65182;SDS011;51771;51.068;-1.780;2023-05-19T04:21:50;3.53;;;1.17;;
65182;SDS011;51771;51.068;-1.780;2023-05-19T04:24:15;3.25;;;1.27;;
65182;SDS011;51771;51.068;-1.780;2023-05-19T04:26:40;3.90;;;1.00;;
65182;SDS011;51771;51.068;-1.780;2023-05-19T04:29:09;1.77;;;0.75;;
65182;SDS011;51771;51.068;-1.780;2023-05-19T04:31:37;2.35;;;0.90;;
65182;SDS011;51771;51.068;-1.780;2023-05-19T04:34:04;3.33;;;0.95;;
65182;SDS011;51771;51.068;-1.780;2023-05-19T04:36:31;2.00;;;0.73;;
65182;SDS011;51771;51.068;-1.780;2023-05-19T04:38:58;2.42;;;1.10;;
65182;SDS011;51771;51.068;-1.780;2023-05-19T04:41:26;3.53;;;1.05;;
65182;SDS011;51771;51.068;-1.780;2023-05-19T04:43:51;2.60;;;0.83;;
65182;SDS011;51771;51.068;-1.780;2023-05-19T04:46:16;2.80;;;1.02;;
65182;SDS011;51771;51.068;-1.780;2023-05-19T04:48:42;2.43;;;0.87;;
65182;SDS011;51771;51.068;-1.780;2023-05-19T04:51:07;2.08;;;1.00;;
65182;SDS011;51771;51.068;-1.780;2023-05-19T04:53:33;5.63;;;1.10;;
65182;SDS011;51771;51.068;-1.780;2023-05-19T04:55:58;3.05;;;1.40;;
65182;SDS011;51771;51.068;-1.780;2023-05-19T04:58:26;2.92;;;1.75;;
65182;SDS011;51771;51.068;-1.780;2023-05-19T05:00:52;3.03;;;1.10;;
65182;SDS011;51771;51.068;-1.780;2023-05-19T05:03:20;2.47;;;0.98;;
65182;SDS011;51771;51.068;-1.780;2023-05-19T05:05:46;2.58;;;0.90;;
65182;SDS011;51771;51.068;-1.780;2023-05-19T05:08:12;2.80;;;1.10;;
65182;SDS011;51771;51.068;-1.780;2023-05-19T05:10:39;6.47;;;1.33;;
65182;SDS011;51771;51.068;-1.780;2023-05-19T05:13:05;4.75;;;1.50;;
65182;SDS011;51771;51.068;-1.780;2023-05-19T05:15:30;3.10;;;1.52;;
65182;SDS011;51771;51.068;-1.780;2023-05-19T05:17:56;3.03;;;1.30;;
65182;SDS011;51771;51.068;-1.780;2023-05-19T05:20:21;3.13;;;0.82;;
65182;SDS011;51771;51.068;-1.780;2023-05-19T05:22:47;3.13;;;1.30;;
65182;SDS011;51771;51.068;-1.780;2023-05-19T05:25:12;2.33;;;0.90;;
65182;SDS011;51771;51.068;-1.780;2023-05-19T05:27:38;3.92;;;1.52;;
65182;SDS011;51771;51.068;-1.780;2023-05-19T05:30:03;8.13;;;1.90;;
65182;SDS011;51771;51.068;-1.780;2023-05-19T05:32:28;3.50;;;1.27;;
65182;SDS011;51771;51.068;-1.780;2023-05-19T05:34:54;4.60;;;1.60;;
65182;SDS011;51771;51.068;-1.780;2023-05-19T05:37:19;4.13;;;1.52;;
65182;SDS011;51771;51.068;-1.780;2023-05-19T05:39:44;3.53;;;1.48;;
65182;SDS011;51771;51.068;-1.780;2023-05-19T05:42:09;4.77;;;1.30;;
65182;SDS011;51771;51.068;-1.780;2023-05-19T05:44:35;2.83;;;1.23;;
65182;SDS011;51771;51.068;-1.780;2023-05-19T05:47:01;3.78;;;1.70;;
65182;SDS011;51771;51.068;-1.780;2023-05-19T05:49:26;4.55;;;1.40;;
65182;SDS011;51771;51.068;-1.780;2023-05-19T05:51:51;3.15;;;1.20;;
65182;SDS011;51771;51.068;-1.780;2023-05-19T05:54:17;3.70;;;1.63;;
65182;SDS011;51771;51.068;-1.780;2023-05-19T05:56:42;3.70;;;1.50;;
65182;SDS011;51771;51.068;-1.780;2023-05-19T05:59:08;3.40;;;1.42;;
65182;SDS011;51771;51.068;-1.780;2023-05-19T06:01:33;4.72;;;1.48;;
65182;SDS011;51771;51.068;-1.780;2023-05-19T06:03:59;4.88;;;1.75;;
65182;SDS011;51771;51.068;-1.780;2023-05-19T06:06:24;3.17;;;0.93;;
65182;SDS011;51771;51.068;-1.780;2023-05-19T06:08:50;6.53;;;2.00;;
65182;SDS011;51771;51.068;-1.780;2023-05-19T06:11:15;6.40;;;1.77;;
65182;SDS011;51771;51.068;-1.780;2023-05-19T06:13:40;4.95;;;2.05;;
65182;SDS011;51771;51.068;-1.780;2023-05-19T06:16:06;7.27;;;1.80;;
65182;SDS011;51771;51.068;-1.780;2023-05-19T06:18:31;5.50;;;2.05;;
65182;SDS011;51771;51.068;-1.780;2023-05-19T06:20:56;3.30;;;1.70;;
65182;SDS011;51771;51.068;-1.780;2023-05-19T06:23:21;4.10;;;1.95;;
65182;SDS011;51771;51.068;-1.780;2023-05-19T06:25:47;4.53;;;2.10;;
65182;SDS011;51771;51.068;-1.780;2023-05-19T06:28:13;4.03;;;1.70;;
65182;SDS011;51771;51.068;-1.780;2023-05-19T06:30:38;7.45;;;1.90;;
65182;SDS011;51771;51.068;-1.780;2023-05-19T06:33:04;4.07;;;1.63;;
65182;SDS011;51771;51.068;-1.780;2023-05-19T06:35:29;4.77;;;1.80;;
65182;SDS011;51771;51.068;-1.780;2023-05-19T06:37:54;3.45;;;1.25;;
65182;SDS011;51771;51.068;-1.780;2023-05-19T06:40:20;4.97;;;2.00;;
65182;SDS011;51771;51.068;-1.780;2023-05-19T06:42:45;6.38;;;1.60;;
65182;SDS011;51771;51.068;-1.780;2023-05-19T06:45:11;5.35;;;2.25;;
65182;SDS011;51771;51.068;-1.780;2023-05-19T06:47:36;5.63;;;1.95;;
65182;SDS011;51771;51.068;-1.780;2023-05-19T06:50:01;4.77;;;1.70;;
65182;SDS011;51771;51.068;-1.780;2023-05-19T06:52:26;5.22;;;2.35;;
65182;SDS011;51771;51.068;-1.780;2023-05-19T06:54:52;5.38;;;2.15;;
65182;SDS011;51771;51.068;-1.780;2023-05-19T06:57:17;4.95;;;2.00;;
65182;SDS011;51771;51.068;-1.780;2023-05-19T06:59:42;6.28;;;2.20;;
65182;SDS011;51771;51.068;-1.780;2023-05-19T07:04:46;6.90;;;1.75;;
65182;SDS011;51771;51.068;-1.780;2023-05-19T07:07:11;5.13;;;1.80;;
65182;SDS011;51771;51.068;-1.780;2023-05-19T07:09:37;5.75;;;2.00;;
65182;SDS011;51771;51.068;-1.780;2023-05-19T07:12:02;7.47;;;2.23;;
65182;SDS011;51771;51.068;-1.780;2023-05-19T07:14:27;9.00;;;2.60;;
65182;SDS011;51771;51.068;-1.780;2023-05-19T07:16:52;7.28;;;2.58;;
65182;SDS011;51771;51.068;-1.780;2023-05-19T07:19:18;6.83;;;2.37;;
65182;SDS011;51771;51.068;-1.780;2023-05-19T07:21:44;5.82;;;2.35;;
65182;SDS011;51771;51.068;-1.780;2023-05-19T07:24:09;6.47;;;2.40;;
65182;SDS011;51771;51.068;-1.780;2023-05-19T07:26:34;5.78;;;2.40;;
65182;SDS011;51771;51.068;-1.780;2023-05-19T07:29:00;7.57;;;2.50;;
65182;SDS011;51771;51.068;-1.780;2023-05-19T07:31:25;6.45;;;2.65;;
65182;SDS011;51771;51.068;-1.780;2023-05-19T07:33:50;5.18;;;2.13;;
65182;SDS011;51771;51.068;-1.780;2023-05-19T07:36:15;5.80;;;2.47;;
65182;SDS011;51771;51.068;-1.780;2023-05-19T07:38:40;6.97;;;2.47;;
65182;SDS011;51771;51.068;-1.780;2023-05-19T07:41:06;6.85;;;2.63;;
65182;SDS011;51771;51.068;-1.780;2023-05-19T07:43:31;6.57;;;2.67;;
65182;SDS011;51771;51.068;-1.780;2023-05-19T07:45:56;5.07;;;2.55;;
65182;SDS011;51771;51.068;-1.780;2023-05-19T07:48:22;5.00;;;2.22;;
65182;SDS011;51771;51.068;-1.780;2023-05-19T07:53:14;5.70;;;2.22;;
65182;SDS011;51771;51.068;-1.780;2023-05-19T07:55:39;7.15;;;3.03;;
65182;SDS011;51771;51.068;-1.780;2023-05-19T07:58:05;10.23;;;2.67;;
65182;SDS011;51771;51.068;-1.780;2023-05-19T08:00:30;5.80;;;2.47;;
65182;SDS011;51771;51.068;-1.780;2023-05-19T08:02:55;6.43;;;2.47;;
65182;SDS011;51771;51.068;-1.780;2023-05-19T08:05:21;9.38;;;2.97;;
65182;SDS011;51771;51.068;-1.780;2023-05-19T08:07:47;7.57;;;2.72;;
65182;SDS011;51771;51.068;-1.780;2023-05-19T08:10:12;10.63;;;3.08;;
65182;SDS011;51771;51.068;-1.780;2023-05-19T08:12:37;6.57;;;3.28;;
65182;SDS011;51771;51.068;-1.780;2023-05-19T08:15:03;7.53;;;2.60;;
65182;SDS011;51771;51.068;-1.780;2023-05-19T08:17:28;6.32;;;2.72;;
65182;SDS011;51771;51.068;-1.780;2023-05-19T08:19:53;6.55;;;2.80;;
65182;SDS011;51771;51.068;-1.780;2023-05-19T08:22:19;7.57;;;2.85;;
65182;SDS011;51771;51.068;-1.780;2023-05-19T08:24:44;6.75;;;3.25;;
65182;SDS011;51771;51.068;-1.780;2023-05-19T08:27:09;7.00;;;2.65;;
65182;SDS011;51771;51.068;-1.780;2023-05-19T08:29:34;6.83;;;3.07;;
65182;SDS011;51771;51.068;-1.780;2023-05-19T08:32:00;7.25;;;3.30;;
65182;SDS011;51771;51.068;-1.780;2023-05-19T08:34:26;7.03;;;2.88;;
65182;SDS011;51771;51.068;-1.780;2023-05-19T08:36:52;7.28;;;3.22;;
65182;SDS011;51771;51.068;-1.780;2023-05-19T08:39:17;8.82;;;2.55;;
65182;SDS011;51771;51.068;-1.780;2023-05-19T08:41:48;7.32;;;2.80;;
65182;SDS011;51771;51.068;-1.780;2023-05-19T08:44:13;8.73;;;2.90;;
65182;SDS011;51771;51.068;-1.780;2023-05-19T08:46:38;13.13;;;4.00;;
65182;SDS011;51771;51.068;-1.780;2023-05-19T08:49:04;8.20;;;3.35;;
65182;SDS011;51771;51.068;-1.780;2023-05-19T08:54:15;6.82;;;2.92;;
65182;SDS011;51771;51.068;-1.780;2023-05-19T08:56:42;13.75;;;2.95;;
65182;SDS011;51771;51.068;-1.780;2023-05-19T08:59:07;8.52;;;3.10;;
65182;SDS011;51771;51.068;-1.780;2023-05-19T09:01:33;5.53;;;3.10;;
65182;SDS011;51771;51.068;-1.780;2023-05-19T09:03:58;12.23;;;3.40;;
65182;SDS011;51771;51.068;-1.780;2023-05-19T09:06:23;6.15;;;2.78;;
65182;SDS011;51771;51.068;-1.780;2023-05-19T09:08:49;8.63;;;2.95;;
65182;SDS011;51771;51.068;-1.780;2023-05-19T09:11:14;9.47;;;3.17;;
65182;SDS011;51771;51.068;-1.780;2023-05-19T09:13:40;6.10;;;2.50;;
65182;SDS011;51771;51.068;-1.780;2023-05-19T09:16:05;8.27;;;3.27;;
65182;SDS011;51771;51.068;-1.780;2023-05-19T09:18:30;6.95;;;2.35;;
65182;SDS011;51771;51.068;-1.780;2023-05-19T09:20:56;6.80;;;2.92;;
65182;SDS011;51771;51.068;-1.780;2023-05-19T09:23:26;13.60;;;3.10;;
65182;SDS011;51771;51.068;-1.780;2023-05-19T09:25:56;7.78;;;3.17;;
65182;SDS011;51771;51.068;-1.780;2023-05-19T09:31:03;6.88;;;3.17;;
65182;SDS011;51771;51.068;-1.780;2023-05-19T09:33:29;7.85;;;3.58;;
65182;SDS011;51771;51.068;-1.780;2023-05-19T09:35:55;6.35;;;2.55;;
65182;SDS011;51771;51.068;-1.780;2023-05-19T09:38:21;7.15;;;3.08;;
65182;SDS011;51771;51.068;-1.780;2023-05-19T09:40:49;5.70;;;2.80;;
65182;SDS011;51771;51.068;-1.780;2023-05-19T09:43:16;5.50;;;2.70;;
65182;SDS011;51771;51.068;-1.780;2023-05-19T09:45:41;5.43;;;2.28;;
65182;SDS011;51771;51.068;-1.780;2023-05-19T09:48:06;5.90;;;2.73;;
65182;SDS011;51771;51.068;-1.780;2023-05-19T09:50:31;7.83;;;3.17;;
65182;SDS011;51771;51.068;-1.780;2023-05-19T09:52:57;8.43;;;3.10;;
65182;SDS011;51771;51.068;-1.780;2023-05-19T09:55:29;7.43;;;2.97;;
65182;SDS011;51771;51.068;-1.780;2023-05-19T09:57:56;8.90;;;3.35;;
65182;SDS011;51771;51.068;-1.780;2023-05-19T10:00:22;5.63;;;3.10;;
65182;SDS011;51771;51.068;-1.780;2023-05-19T10:02:47;6.70;;;3.25;;
65182;SDS011;51771;51.068;-1.780;2023-05-19T10:05:16;8.23;;;3.45;;
65182;SDS011;51771;51.068;-1.780;2023-05-19T10:07:44;9.35;;;3.13;;
65182;SDS011;51771;51.068;-1.780;2023-05-19T10:10:10;9.10;;;3.10;;
65182;SDS011;51771;51.068;-1.780;2023-05-19T10:12:36;9.35;;;3.40;;
65182;SDS011;51771;51.068;-1.780;2023-05-19T10:15:03;8.10;;;3.72;;
65182;SDS011;51771;51.068;-1.780;2023-05-19T10:17:28;6.45;;;2.80;;
65182;SDS011;51771;51.068;-1.780;2023-05-19T10:19:54;7.40;;;3.20;;
65182;SDS011;51771;51.068;-1.780;2023-05-19T10:22:19;8.60;;;2.83;;
65182;SDS011;51771;51.068;-1.780;2023-05-19T10:24:45;7.13;;;3.17;;
65182;SDS011;51771;51.068;-1.780;2023-05-19T10:27:11;5.60;;;2.67;;
65182;SDS011;51771;51.068;-1.780;2023-05-19T10:29:39;6.50;;;2.75;;
65182;SDS011;51771;51.068;-1.780;2023-05-19T10:32:06;8.07;;;3.30;;
65182;SDS011;51771;51.068;-1.780;2023-05-19T10:39:46;6.85;;;2.78;;
65182;SDS011;51771;51.068;-1.780;2023-05-19T10:42:16;6.28;;;2.72;;
65182;SDS011;51771;51.068;-1.780;2023-05-19T10:47:27;7.95;;;3.08;;
65182;SDS011;51771;51.068;-1.780;2023-05-19T10:49:53;7.10;;;2.97;;
65182;SDS011;51771;51.068;-1.780;2023-05-19T10:52:20;8.38;;;2.88;;
65182;SDS011;51771;51.068;-1.780;2023-05-19T10:54:45;8.07;;;2.85;;
65182;SDS011;51771;51.068;-1.780;2023-05-19T10:57:14;6.68;;;2.72;;
65182;SDS011;51771;51.068;-1.780;2023-05-19T10:59:40;10.48;;;3.15;;
65182;SDS011;51771;51.068;-1.780;2023-05-19T11:02:06;7.95;;;3.03;;
65182;SDS011;51771;51.068;-1.780;2023-05-19T11:04:39;8.52;;;2.88;;
65182;SDS011;51771;51.068;-1.780;2023-05-19T11:07:13;6.30;;;3.00;;
65182;SDS011;51771;51.068;-1.780;2023-05-19T11:09:39;6.60;;;2.78;;
65182;SDS011;51771;51.068;-1.780;2023-05-19T11:12:05;8.25;;;3.17;;
65182;SDS011;51771;51.068;-1.780;2023-05-19T11:14:30;7.90;;;3.22;;
65182;SDS011;51771;51.068;-1.780;2023-05-19T11:16:56;6.97;;;2.95;;
65182;SDS011;51771;51.068;-1.780;2023-05-19T11:19:29;6.15;;;2.53;;
65182;SDS011;51771;51.068;-1.780;2023-05-19T11:21:55;8.35;;;2.92;;
65182;SDS011;51771;51.068;-1.780;2023-05-19T11:24:34;6.65;;;3.13;;
65182;SDS011;51771;51.068;-1.780;2023-05-19T11:27:16;6.88;;;2.92;;
65182;SDS011;51771;51.068;-1.780;2023-05-19T11:29:42;6.32;;;2.75;;
65182;SDS011;51771;51.068;-1.780;2023-05-19T11:32:07;8.38;;;3.08;;
65182;SDS011;51771;51.068;-1.780;2023-05-19T11:34:33;7.25;;;2.90;;
65182;SDS011;51771;51.068;-1.780;2023-05-19T11:36:59;6.97;;;2.55;;
65182;SDS011;51771;51.068;-1.780;2023-05-19T11:39:25;8.18;;;3.20;;
65182;SDS011;51771;51.068;-1.780;2023-05-19T11:41:51;5.95;;;2.67;;
65182;SDS011;51771;51.068;-1.780;2023-05-19T11:44:19;10.10;;;3.50;;
65182;SDS011;51771;51.068;-1.780;2023-05-19T11:46:44;7.93;;;3.57;;
65182;SDS011;51771;51.068;-1.780;2023-05-19T11:49:09;7.47;;;2.80;;
65182;SDS011;51771;51.068;-1.780;2023-05-19T11:51:35;7.32;;;3.30;;
65182;SDS011;51771;51.068;-1.780;2023-05-19T11:54:01;7.23;;;3.10;;
65182;SDS011;51771;51.068;-1.780;2023-05-19T11:56:29;11.77;;;3.42;;
65182;SDS011;51771;51.068;-1.780;2023-05-19T11:58:57;7.35;;;3.08;;
65182;SDS011;51771;51.068;-1.780;2023-05-19T12:01:22;5.83;;;2.63;;
65182;SDS011;51771;51.068;-1.780;2023-05-19T12:03:50;7.72;;;3.42;;
65182;SDS011;51771;51.068;-1.780;2023-05-19T12:06:15;6.97;;;3.30;;
65182;SDS011;51771;51.068;-1.780;2023-05-19T12:08:41;7.43;;;3.30;;
65182;SDS011;51771;51.068;-1.780;2023-05-19T12:11:06;8.18;;;3.38;;
65182;SDS011;51771;51.068;-1.780;2023-05-19T12:13:32;6.70;;;2.23;;
65182;SDS011;51771;51.068;-1.780;2023-05-19T12:16:02;6.53;;;3.45;;
65182;SDS011;51771;51.068;-1.780;2023-05-19T12:18:35;5.72;;;2.70;;
65182;SDS011;51771;51.068;-1.780;2023-05-19T12:21:00;7.45;;;3.25;;
65182;SDS011;51771;51.068;-1.780;2023-05-19T12:23:25;7.53;;;2.88;;
65182;SDS011;51771;51.068;-1.780;2023-05-19T12:25:51;9.40;;;3.75;;
65182;SDS011;51771;51.068;-1.780;2023-05-19T12:28:17;5.70;;;2.45;;
65182;SDS011;51771;51.068;-1.780;2023-05-19T12:30:46;6.15;;;2.90;;
65182;SDS011;51771;51.068;-1.780;2023-05-19T12:33:11;12.65;;;3.25;;
65182;SDS011;51771;51.068;-1.780;2023-05-19T12:35:38;8.07;;;3.47;;
65182;SDS011;51771;51.068;-1.780;2023-05-19T12:38:04;5.43;;;2.45;;
65182;SDS011;51771;51.068;-1.780;2023-05-19T12:40:30;7.20;;;2.67;;
65182;SDS011;51771;51.068;-1.780;2023-05-19T12:42:55;7.07;;;2.55;;
65182;SDS011;51771;51.068;-1.780;2023-05-19T12:45:22;8.88;;;2.97;;
65182;SDS011;51771;51.068;-1.780;2023-05-19T12:47:50;10.13;;;2.92;;
65182;SDS011;51771;51.068;-1.780;2023-05-19T12:50:15;5.95;;;2.45;;
65182;SDS011;51771;51.068;-1.780;2023-05-19T12:52:41;6.30;;;2.47;;
65182;SDS011;51771;51.068;-1.780;2023-05-19T12:55:07;8.35;;;2.90;;
65182;SDS011;51771;51.068;-1.780;2023-05-19T12:57:37;5.63;;;2.60;;
65182;SDS011;51771;51.068;-1.780;2023-05-19T13:00:04;6.35;;;2.45;;
65182;SDS011;51771;51.068;-1.780;2023-05-19T13:02:34;5.05;;;2.35;;
65182;SDS011;51771;51.068;-1.780;2023-05-19T13:05:00;6.65;;;2.70;;
65182;SDS011;51771;51.068;-1.780;2023-05-19T13:07:26;7.13;;;2.50;;
65182;SDS011;51771;51.068;-1.780;2023-05-19T13:09:51;6.05;;;2.47;;
65182;SDS011;51771;51.068;-1.780;2023-05-19T13:12:16;5.90;;;2.58;;
65182;SDS011;51771;51.068;-1.780;2023-05-19T13:14:42;9.50;;;3.47;;
65182;SDS011;51771;51.068;-1.780;2023-05-19T13:17:07;8.27;;;3.22;;
65182;SDS011;51771;51.068;-1.780;2023-05-19T13:19:33;6.75;;;2.63;;
65182;SDS011;51771;51.068;-1.780;2023-05-19T13:21:58;8.73;;;3.23;;
65182;SDS011;51771;51.068;-1.780;2023-05-19T13:24:23;8.90;;;3.60;;
65182;SDS011;51771;51.068;-1.780;2023-05-19T13:26:48;6.13;;;2.43;;
65182;SDS011;51771;51.068;-1.780;2023-05-19T13:29:14;7.88;;;3.00;;
65182;SDS011;51771;51.068;-1.780;2023-05-19T13:31:39;8.43;;;3.15;;
65182;SDS011;51771;51.068;-1.780;2023-05-19T13:34:04;7.15;;;2.97;;
65182;SDS011;51771;51.068;-1.780;2023-05-19T13:36:29;8.30;;;3.13;;
65182;SDS011;51771;51.068;-1.780;2023-05-19T13:38:56;8.23;;;3.13;;
65182;SDS011;51771;51.068;-1.780;2023-05-19T13:41:22;6.22;;;3.17;;
65182;SDS011;51771;51.068;-1.780;2023-05-19T13:43:48;9.00;;;3.53;;
65182;SDS011;51771;51.068;-1.780;2023-05-19T13:46:14;7.13;;;2.97;;
65182;SDS011;51771;51.068;-1.780;2023-05-19T13:48:39;5.45;;;2.63;;
65182;SDS011;51771;51.068;-1.780;2023-05-19T13:51:04;6.97;;;3.10;;
65182;SDS011;51771;51.068;-1.780;2023-05-19T13:53:29;6.87;;;2.63;;
65182;SDS011;51771;51.068;-1.780;2023-05-19T13:55:56;4.75;;;2.20;;
65182;SDS011;51771;51.068;-1.780;2023-05-19T13:58:22;6.15;;;2.47;;
65182;SDS011;51771;51.068;-1.780;2023-05-19T14:00:47;6.40;;;2.77;;
65182;SDS011;51771;51.068;-1.780;2023-05-19T14:03:13;5.43;;;2.95;;
65182;SDS011;51771;51.068;-1.780;2023-05-19T14:05:40;7.03;;;3.30;;
65182;SDS011;51771;51.068;-1.780;2023-05-19T14:08:05;7.63;;;2.55;;
65182;SDS011;51771;51.068;-1.780;2023-05-19T14:10:30;6.53;;;2.80;;
65182;SDS011;51771;51.068;-1.780;2023-05-19T14:12:56;7.00;;;2.72;;
65182;SDS011;51771;51.068;-1.780;2023-05-19T14:17:48;6.80;;;2.38;;
65182;SDS011;51771;51.068;-1.780;2023-05-19T14:20:14;5.87;;;2.47;;
65182;SDS011;51771;51.068;-1.780;2023-05-19T14:22:39;4.77;;;2.13;;
65182;SDS011;51771;51.068;-1.780;2023-05-19T14:25:04;5.63;;;2.23;;
65182;SDS011;51771;51.068;-1.780;2023-05-19T14:27:30;6.40;;;2.00;;
65182;SDS011;51771;51.068;-1.780;2023-05-19T14:29:55;7.23;;;2.73;;
65182;SDS011;51771;51.068;-1.780;2023-05-19T14:32:20;7.63;;;2.60;;
65182;SDS011;51771;51.068;-1.780;2023-05-19T14:34:45;11.70;;;2.93;;
65182;SDS011;51771;51.068;-1.780;2023-05-19T14:37:10;8.53;;;3.20;;
65182;SDS011;51771;51.068;-1.780;2023-05-19T14:39:36;6.75;;;2.67;;
65182;SDS011;51771;51.068;-1.780;2023-05-19T14:42:01;5.82;;;2.05;;
65182;SDS011;51771;51.068;-1.780;2023-05-19T14:44:30;7.60;;;2.60;;
65182;SDS011;51771;51.068;-1.780;2023-05-19T14:46:56;6.70;;;2.60;;
65182;SDS011;51771;51.068;-1.780;2023-05-19T14:49:22;8.73;;;2.38;;
65182;SDS011;51771;51.068;-1.780;2023-05-19T14:51:47;5.80;;;2.53;;
65182;SDS011;51771;51.068;-1.780;2023-05-19T14:54:12;8.00;;;3.30;;
65182;SDS011;51771;51.068;-1.780;2023-05-19T14:56:37;7.10;;;2.37;;
65182;SDS011;51771;51.068;-1.780;2023-05-19T14:59:02;6.43;;;2.70;;
65182;SDS011;51771;51.068;-1.780;2023-05-19T15:01:28;9.30;;;2.90;;
65182;SDS011;51771;51.068;-1.780;2023-05-19T15:03:53;6.50;;;2.88;;
65182;SDS011;51771;51.068;-1.780;2023-05-19T15:06:19;5.18;;;2.08;;